sensor_id;sensor_type;location;lat;lon;timestamp;P1;durP1;ratioP1;P2;durP2;ratioP2
21677;SDS011;11000;50.360;7.582;2023-04-01T00:01:23;5.13;;;1.10;;
21677;SDS011;11000;50.360;7.582;2023-04-01T00:03:44;3.30;;;0.80;;
21677;SDS011;11000;50.360;7.582;2023-04-01T00:06:04;4.10;;;1.00;;
21677;SDS011;11000;50.360;7.582;2023-04-01T00:08:26;3.17;;;0.87;;
21677;SDS011;11000;50.360;7.582;2023-04-01T00:10:46;2.97;;;0.70;;
21677;SDS011;11000;50.360;7.582;2023-04-01T00:13:07;2.97;;;0.80;;
21677;SDS011;11000;50.360;7.582;2023-04-01T00:15:29;3.23;;;0.77;;
21677;SDS011;11000;50.360;7.582;2023-04-01T00:17:50;5.00;;;0.87;;
21677;SDS011;11000;50.360;7.582;2023-04-01T00:20:11;4.83;;;0.93;;
21677;SDS011;11000;50.360;7.582;2023-04-01T00:22:32;1.93;;;0.60;;
21677;SDS011;11000;50.360;7.582;2023-04-01T00:24:53;2.80;;;0.90;;
21677;SDS011;11000;50.360;7.582;2023-04-01T00:27:14;1.87;;;0.80;;
21677;SDS011;11000;50.360;7.582;2023-04-01T00:29:35;4.17;;;1.17;;
21677;SDS011;11000;50.360;7.582;2023-04-01T00:31:56;3.40;;;0.70;;
21677;SDS011;11000;50.360;7.582;2023-04-01T00:34:17;3.83;;;1.00;;
21677;SDS011;11000;50.360;7.582;2023-04-01T00:36:38;4.40;;;1.00;;
21677;SDS011;11000;50.360;7.582;2023-04-01T00:38:58;3.07;;;0.60;;
21677;SDS011;11000;50.360;7.582;2023-04-01T00:41:19;7.57;;;1.10;;
21677;SDS011;11000;50.360;7.582;2023-04-01T00:43:41;2.67;;;0.80;;
21677;SDS011;11000;50.360;7.582;2023-04-01T00:46:03;1.47;;;0.57;;
21677;SDS011;11000;50.360;7.582;2023-04-01T00:48:31;3.90;;;0.97;;
21677;SDS011;11000;50.360;7.582;2023-04-01T00:50:56;2.53;;;0.80;;
21677;SDS011;11000;50.360;7.582;2023-04-01T00:53:20;3.10;;;0.73;;
21677;SDS011;11000;50.360;7.582;2023-04-01T00:55:44;3.07;;;0.70;;
21677;SDS011;11000;50.360;7.582;2023-04-01T00:58:11;4.13;;;1.00;;
21677;SDS011;11000;50.360;7.582;2023-04-01T01:00:35;1.70;;;0.73;;
21677;SDS011;11000;50.360;7.582;2023-04-01T01:02:57;1.80;;;1.10;;
21677;SDS011;11000;50.360;7.582;2023-04-01T01:05:18;3.37;;;0.93;;
21677;SDS011;11000;50.360;7.582;2023-04-01T01:13:17;3.60;;;0.77;;
21677;SDS011;11000;50.360;7.582;2023-04-01T01:18:24;5.47;;;0.80;;
21677;SDS011;11000;50.360;7.582;2023-04-01T01:20:57;1.47;;;0.60;;
21677;SDS011;11000;50.360;7.582;2023-04-01T01:29:00;2.77;;;0.80;;
21677;SDS011;11000;50.360;7.582;2023-04-01T01:31:41;4.13;;;0.70;;
21677;SDS011;11000;50.360;7.582;2023-04-01T01:34:31;6.17;;;0.83;;
21677;SDS011;11000;50.360;7.582;2023-04-01T01:37:14;1.63;;;0.60;;
21677;SDS011;11000;50.360;7.582;2023-04-01T01:39:37;5.33;;;1.00;;
21677;SDS011;11000;50.360;7.582;2023-04-01T01:42:00;1.47;;;0.53;;
21677;SDS011;11000;50.360;7.582;2023-04-01T01:44:24;5.40;;;1.10;;
21677;SDS011;11000;50.360;7.582;2023-04-01T01:46:46;3.53;;;0.93;;
21677;SDS011;11000;50.360;7.582;2023-04-01T01:49:08;4.23;;;1.17;;
21677;SDS011;11000;50.360;7.582;2023-04-01T01:51:32;3.53;;;0.73;;
21677;SDS011;11000;50.360;7.582;2023-04-01T01:53:54;3.27;;;0.57;;
21677;SDS011;11000;50.360;7.582;2023-04-01T01:56:15;2.43;;;0.80;;
21677;SDS011;11000;50.360;7.582;2023-04-01T01:58:42;4.67;;;0.73;;
21677;SDS011;11000;50.360;7.582;2023-04-01T02:01:09;4.17;;;0.80;;
21677;SDS011;11000;50.360;7.582;2023-04-01T02:03:34;2.43;;;0.83;;
21677;SDS011;11000;50.360;7.582;2023-04-01T02:05:57;2.70;;;1.00;;
21677;SDS011;11000;50.360;7.582;2023-04-01T02:11:00;4.03;;;0.83;;
21677;SDS011;11000;50.360;7.582;2023-04-01T02:13:40;2.80;;;0.50;;
21677;SDS011;11000;50.360;7.582;2023-04-01T02:16:12;2.97;;;0.70;;
21677;SDS011;11000;50.360;7.582;2023-04-01T02:18:36;4.27;;;0.80;;
21677;SDS011;11000;50.360;7.582;2023-04-01T02:20:58;1.27;;;0.30;;
21677;SDS011;11000;50.360;7.582;2023-04-01T02:23:19;2.87;;;0.70;;
21677;SDS011;11000;50.360;7.582;2023-04-01T02:25:40;6.00;;;0.80;;
21677;SDS011;11000;50.360;7.582;2023-04-01T02:28:03;4.77;;;0.80;;
21677;SDS011;11000;50.360;7.582;2023-04-01T02:30:29;2.70;;;1.00;;
21677;SDS011;11000;50.360;7.582;2023-04-01T02:32:52;0.87;;;0.53;;
21677;SDS011;11000;50.360;7.582;2023-04-01T02:35:13;4.50;;;1.33;;
21677;SDS011;11000;50.360;7.582;2023-04-01T02:37:36;4.03;;;0.80;;
21677;SDS011;11000;50.360;7.582;2023-04-01T02:40:01;1.83;;;0.90;;
21677;SDS011;11000;50.360;7.582;2023-04-01T02:42:23;2.50;;;0.70;;
21677;SDS011;11000;50.360;7.582;2023-04-01T02:44:43;3.23;;;0.53;;
21677;SDS011;11000;50.360;7.582;2023-04-01T02:47:04;6.20;;;0.73;;
21677;SDS011;11000;50.360;7.582;2023-04-01T02:49:24;3.10;;;1.00;;
21677;SDS011;11000;50.360;7.582;2023-04-01T02:51:45;2.23;;;0.50;;
21677;SDS011;11000;50.360;7.582;2023-04-01T02:54:05;3.13;;;0.80;;
21677;SDS011;11000;50.360;7.582;2023-04-01T02:56:26;3.17;;;0.70;;
21677;SDS011;11000;50.360;7.582;2023-04-01T02:58:47;2.50;;;0.50;;
21677;SDS011;11000;50.360;7.582;2023-04-01T03:01:08;2.73;;;0.60;;
21677;SDS011;11000;50.360;7.582;2023-04-01T03:03:28;3.70;;;1.10;;
21677;SDS011;11000;50.360;7.582;2023-04-01T03:05:49;1.27;;;0.50;;
21677;SDS011;11000;50.360;7.582;2023-04-01T03:08:09;5.10;;;1.10;;
21677;SDS011;11000;50.360;7.582;2023-04-01T03:10:30;3.10;;;0.77;;
21677;SDS011;11000;50.360;7.582;2023-04-01T03:12:50;4.23;;;0.70;;
21677;SDS011;11000;50.360;7.582;2023-04-01T03:15:11;4.10;;;0.83;;
21677;SDS011;11000;50.360;7.582;2023-04-01T03:17:34;2.23;;;0.50;;
21677;SDS011;11000;50.360;7.582;2023-04-01T03:19:54;2.23;;;0.47;;
21677;SDS011;11000;50.360;7.582;2023-04-01T03:22:15;2.63;;;0.70;;
21677;SDS011;11000;50.360;7.582;2023-04-01T03:24:35;2.13;;;0.67;;
21677;SDS011;11000;50.360;7.582;2023-04-01T03:26:56;1.70;;;0.67;;
21677;SDS011;11000;50.360;7.582;2023-04-01T03:29:17;2.17;;;0.77;;
21677;SDS011;11000;50.360;7.582;2023-04-01T03:31:38;4.87;;;1.43;;
21677;SDS011;11000;50.360;7.582;2023-04-01T03:33:58;2.53;;;0.50;;
21677;SDS011;11000;50.360;7.582;2023-04-01T03:36:19;1.60;;;0.70;;
21677;SDS011;11000;50.360;7.582;2023-04-01T03:38:40;0.97;;;0.47;;
21677;SDS011;11000;50.360;7.582;2023-04-01T03:41:01;3.67;;;0.60;;
21677;SDS011;11000;50.360;7.582;2023-04-01T03:43:22;3.03;;;0.53;;
21677;SDS011;11000;50.360;7.582;2023-04-01T03:45:46;4.60;;;0.70;;
21677;SDS011;11000;50.360;7.582;2023-04-01T03:48:08;2.43;;;0.70;;
21677;SDS011;11000;50.360;7.582;2023-04-01T03:50:28;3.73;;;0.60;;
21677;SDS011;11000;50.360;7.582;2023-04-01T03:52:49;1.10;;;0.50;;
21677;SDS011;11000;50.360;7.582;2023-04-01T03:55:10;3.63;;;0.73;;
21677;SDS011;11000;50.360;7.582;2023-04-01T03:57:31;1.80;;;0.40;;
21677;SDS011;11000;50.360;7.582;2023-04-01T03:59:51;1.63;;;0.47;;
21677;SDS011;11000;50.360;7.582;2023-04-01T04:02:12;2.83;;;0.63;;
21677;SDS011;11000;50.360;7.582;2023-04-01T04:04:32;2.70;;;0.50;;
21677;SDS011;11000;50.360;7.582;2023-04-01T04:06:54;2.50;;;0.90;;
21677;SDS011;11000;50.360;7.582;2023-04-01T04:09:14;1.70;;;0.60;;
21677;SDS011;11000;50.360;7.582;2023-04-01T04:11:35;0.90;;;0.40;;
21677;SDS011;11000;50.360;7.582;2023-04-01T04:13:55;2.27;;;0.50;;
21677;SDS011;11000;50.360;7.582;2023-04-01T04:16:16;1.10;;;0.40;;
21677;SDS011;11000;50.360;7.582;2023-04-01T04:18:37;3.43;;;0.40;;
21677;SDS011;11000;50.360;7.582;2023-04-01T04:20:57;1.40;;;0.40;;
21677;SDS011;11000;50.360;7.582;2023-04-01T04:23:18;3.33;;;0.50;;
21677;SDS011;11000;50.360;7.582;2023-04-01T04:25:39;2.50;;;0.80;;
21677;SDS011;11000;50.360;7.582;2023-04-01T04:27:59;2.67;;;0.47;;
21677;SDS011;11000;50.360;7.582;2023-04-01T04:30:20;2.70;;;0.40;;
21677;SDS011;11000;50.360;7.582;2023-04-01T04:32:40;2.40;;;0.73;;
21677;SDS011;11000;50.360;7.582;2023-04-01T04:35:01;2.00;;;0.50;;
21677;SDS011;11000;50.360;7.582;2023-04-01T04:37:22;2.30;;;0.50;;
21677;SDS011;11000;50.360;7.582;2023-04-01T04:39:43;3.33;;;0.70;;
21677;SDS011;11000;50.360;7.582;2023-04-01T04:42:03;1.47;;;0.40;;
21677;SDS011;11000;50.360;7.582;2023-04-01T04:44:25;2.53;;;0.50;;
21677;SDS011;11000;50.360;7.582;2023-04-01T04:46:45;1.00;;;0.30;;
21677;SDS011;11000;50.360;7.582;2023-04-01T04:49:06;2.57;;;0.50;;
21677;SDS011;11000;50.360;7.582;2023-04-01T04:51:27;2.17;;;0.50;;
21677;SDS011;11000;50.360;7.582;2023-04-01T04:53:47;0.87;;;0.50;;
21677;SDS011;11000;50.360;7.582;2023-04-01T04:56:08;1.90;;;0.40;;
21677;SDS011;11000;50.360;7.582;2023-04-01T04:58:29;3.23;;;0.60;;
21677;SDS011;11000;50.360;7.582;2023-04-01T05:00:49;1.93;;;0.30;;
21677;SDS011;11000;50.360;7.582;2023-04-01T05:03:10;1.40;;;0.40;;
21677;SDS011;11000;50.360;7.582;2023-04-01T05:05:31;0.80;;;0.30;;
21677;SDS011;11000;50.360;7.582;2023-04-01T05:07:52;1.83;;;0.70;;
21677;SDS011;11000;50.360;7.582;2023-04-01T05:10:12;1.53;;;0.40;;
21677;SDS011;11000;50.360;7.582;2023-04-01T05:12:33;2.10;;;0.40;;
21677;SDS011;11000;50.360;7.582;2023-04-01T05:14:57;1.23;;;0.27;;
21677;SDS011;11000;50.360;7.582;2023-04-01T05:17:17;2.17;;;0.50;;
21677;SDS011;11000;50.360;7.582;2023-04-01T05:19:38;2.77;;;0.67;;
21677;SDS011;11000;50.360;7.582;2023-04-01T05:21:58;2.20;;;0.40;;
21677;SDS011;11000;50.360;7.582;2023-04-01T05:24:19;2.23;;;0.50;;
21677;SDS011;11000;50.360;7.582;2023-04-01T05:26:39;0.57;;;0.30;;
21677;SDS011;11000;50.360;7.582;2023-04-01T05:29:00;3.03;;;0.40;;
21677;SDS011;11000;50.360;7.582;2023-04-01T05:31:20;0.50;;;0.30;;
21677;SDS011;11000;50.360;7.582;2023-04-01T05:33:41;1.40;;;0.30;;
21677;SDS011;11000;50.360;7.582;2023-04-01T05:36:05;2.13;;;0.60;;
21677;SDS011;11000;50.360;7.582;2023-04-01T05:38:30;0.43;;;0.20;;
21677;SDS011;11000;50.360;7.582;2023-04-01T05:40:50;0.77;;;0.10;;
21677;SDS011;11000;50.360;7.582;2023-04-01T05:43:11;2.20;;;0.50;;
21677;SDS011;11000;50.360;7.582;2023-04-01T05:45:31;2.43;;;0.40;;
21677;SDS011;11000;50.360;7.582;2023-04-01T05:47:52;1.03;;;0.23;;
21677;SDS011;11000;50.360;7.582;2023-04-01T05:50:12;0.40;;;0.20;;
21677;SDS011;11000;50.360;7.582;2023-04-01T05:52:33;1.13;;;0.23;;
21677;SDS011;11000;50.360;7.582;2023-04-01T05:54:53;1.40;;;0.40;;
21677;SDS011;11000;50.360;7.582;2023-04-01T05:57:14;2.03;;;0.33;;
21677;SDS011;11000;50.360;7.582;2023-04-01T05:59:35;1.87;;;0.47;;
21677;SDS011;11000;50.360;7.582;2023-04-01T06:01:55;0.87;;;0.30;;
21677;SDS011;11000;50.360;7.582;2023-04-01T06:04:17;1.10;;;0.63;;
21677;SDS011;11000;50.360;7.582;2023-04-01T06:06:38;0.67;;;0.30;;
21677;SDS011;11000;50.360;7.582;2023-04-01T06:09:16;1.17;;;0.30;;
21677;SDS011;11000;50.360;7.582;2023-04-01T06:11:46;1.67;;;0.30;;
21677;SDS011;11000;50.360;7.582;2023-04-01T06:19:25;0.87;;;0.20;;
21677;SDS011;11000;50.360;7.582;2023-04-01T06:27:40;1.00;;;0.40;;
21677;SDS011;11000;50.360;7.582;2023-04-01T06:35:55;1.47;;;0.33;;
21677;SDS011;11000;50.360;7.582;2023-04-01T06:44:04;0.70;;;0.57;;
21677;SDS011;11000;50.360;7.582;2023-04-01T06:47:17;0.50;;;0.20;;
21677;SDS011;11000;50.360;7.582;2023-04-01T06:50:03;0.50;;;0.27;;
21677;SDS011;11000;50.360;7.582;2023-04-01T06:52:26;0.23;;;0.20;;
21677;SDS011;11000;50.360;7.582;2023-04-01T06:54:55;1.83;;;0.30;;
21677;SDS011;11000;50.360;7.582;2023-04-01T06:57:23;2.17;;;0.23;;
21677;SDS011;11000;50.360;7.582;2023-04-01T06:59:51;0.37;;;0.20;;
21677;SDS011;11000;50.360;7.582;2023-04-01T07:02:19;0.77;;;0.20;;
21677;SDS011;11000;50.360;7.582;2023-04-01T07:04:41;0.67;;;0.40;;
21677;SDS011;11000;50.360;7.582;2023-04-01T07:10:04;0.63;;;0.20;;
21677;SDS011;11000;50.360;7.582;2023-04-01T07:14:51;0.43;;;0.20;;
21677;SDS011;11000;50.360;7.582;2023-04-01T07:17:19;0.40;;;0.20;;
21677;SDS011;11000;50.360;7.582;2023-04-01T07:20:26;1.00;;;0.20;;
21677;SDS011;11000;50.360;7.582;2023-04-01T07:22:48;0.47;;;0.23;;
21677;SDS011;11000;50.360;7.582;2023-04-01T07:25:13;0.40;;;0.30;;
21677;SDS011;11000;50.360;7.582;2023-04-01T07:27:42;0.23;;;0.07;;
21677;SDS011;11000;50.360;7.582;2023-04-01T07:30:06;0.00;;;0.00;;
21677;SDS011;11000;50.360;7.582;2023-04-01T07:32:42;1.00;;;0.20;;
21677;SDS011;11000;50.360;7.582;2023-04-01T07:40:53;0.40;;;0.30;;
21677;SDS011;11000;50.360;7.582;2023-04-01T07:51:02;1.87;;;0.53;;
21677;SDS011;11000;50.360;7.582;2023-04-01T07:53:43;3.80;;;1.20;;
21677;SDS011;11000;50.360;7.582;2023-04-01T07:56:49;0.57;;;0.30;;
21677;SDS011;11000;50.360;7.582;2023-04-01T08:07:56;1.90;;;0.30;;
21677;SDS011;11000;50.360;7.582;2023-04-01T08:13:02;1.53;;;0.50;;
21677;SDS011;11000;50.360;7.582;2023-04-01T08:15:27;1.57;;;0.30;;
21677;SDS011;11000;50.360;7.582;2023-04-01T08:22:49;0.63;;;0.20;;
21677;SDS011;11000;50.360;7.582;2023-04-01T08:25:17;1.33;;;0.60;;
21677;SDS011;11000;50.360;7.582;2023-04-01T08:27:46;0.40;;;0.20;;
21677;SDS011;11000;50.360;7.582;2023-04-01T08:32:54;0.40;;;0.30;;
21677;SDS011;11000;50.360;7.582;2023-04-01T08:35:24;0.60;;;0.20;;
21677;SDS011;11000;50.360;7.582;2023-04-01T08:37:51;0.23;;;0.23;;
21677;SDS011;11000;50.360;7.582;2023-04-01T08:45:18;0.90;;;0.30;;
21677;SDS011;11000;50.360;7.582;2023-04-01T08:51:20;1.07;;;0.60;;
21677;SDS011;11000;50.360;7.582;2023-04-01T08:59:47;1.17;;;0.40;;
21677;SDS011;11000;50.360;7.582;2023-04-01T09:05:39;0.30;;;0.30;;
21677;SDS011;11000;50.360;7.582;2023-04-01T09:08:31;0.20;;;0.20;;
21677;SDS011;11000;50.360;7.582;2023-04-01T09:11:11;0.63;;;0.33;;
21677;SDS011;11000;50.360;7.582;2023-04-01T09:14:03;0.23;;;0.20;;
21677;SDS011;11000;50.360;7.582;2023-04-01T09:27:56;0.20;;;0.20;;
21677;SDS011;11000;50.360;7.582;2023-04-01T09:30:47;0.47;;;0.30;;
21677;SDS011;11000;50.360;7.582;2023-04-01T09:36:21;0.20;;;0.20;;
21677;SDS011;11000;50.360;7.582;2023-04-01T09:41:22;0.90;;;0.43;;
21677;SDS011;11000;50.360;7.582;2023-04-01T09:46:23;0.20;;;0.20;;
21677;SDS011;11000;50.360;7.582;2023-04-01T09:51:46;0.30;;;0.30;;
21677;SDS011;11000;50.360;7.582;2023-04-01T10:00:10;0.30;;;0.30;;
21677;SDS011;11000;50.360;7.582;2023-04-01T10:05:40;0.50;;;0.30;;
21677;SDS011;11000;50.360;7.582;2023-04-01T10:08:31;0.40;;;0.40;;
21677;SDS011;11000;50.360;7.582;2023-04-01T10:27:40;0.33;;;0.33;;
21677;SDS011;11000;50.360;7.582;2023-04-01T10:30:29;0.70;;;0.57;;
21677;SDS011;11000;50.360;7.582;2023-04-01T10:58:00;0.70;;;0.60;;
21677;SDS011;11000;50.360;7.582;2023-04-01T11:03:44;1.73;;;0.70;;
21677;SDS011;11000;50.360;7.582;2023-04-01T11:16:51;0.70;;;0.70;;
21677;SDS011;11000;50.360;7.582;2023-04-01T11:22:15;0.50;;;0.50;;
21677;SDS011;11000;50.360;7.582;2023-04-01T11:33:38;0.50;;;0.50;;
21677;SDS011;11000;50.360;7.582;2023-04-01T11:36:09;1.17;;;0.90;;
21677;SDS011;11000;50.360;7.582;2023-04-01T11:41:46;0.70;;;0.70;;
21677;SDS011;11000;50.360;7.582;2023-04-01T11:44:21;0.50;;;0.50;;
21677;SDS011;11000;50.360;7.582;2023-04-01T11:55:10;0.60;;;0.50;;
21677;SDS011;11000;50.360;7.582;2023-04-01T11:57:50;0.60;;;0.40;;
21677;SDS011;11000;50.360;7.582;2023-04-01T12:00:35;0.60;;;0.60;;
21677;SDS011;11000;50.360;7.582;2023-04-01T12:03:21;0.70;;;0.60;;
21677;SDS011;11000;50.360;7.582;2023-04-01T12:12:29;1.70;;;0.70;;
21677;SDS011;11000;50.360;7.582;2023-04-01T12:25:19;0.63;;;0.50;;
21677;SDS011;11000;50.360;7.582;2023-04-01T12:28:25;0.67;;;0.40;;
21677;SDS011;11000;50.360;7.582;2023-04-01T12:33:44;0.87;;;0.60;;
21677;SDS011;11000;50.360;7.582;2023-04-01T12:39:07;0.60;;;0.50;;
21677;SDS011;11000;50.360;7.582;2023-04-01T12:44:13;0.83;;;0.57;;
21677;SDS011;11000;50.360;7.582;2023-04-01T12:49:34;0.70;;;0.60;;
21677;SDS011;11000;50.360;7.582;2023-04-01T12:55:04;0.40;;;0.40;;
21677;SDS011;11000;50.360;7.582;2023-04-01T12:58:06;0.50;;;0.40;;
21677;SDS011;11000;50.360;7.582;2023-04-01T13:00:53;0.67;;;0.60;;
21677;SDS011;11000;50.360;7.582;2023-04-01T13:03:32;0.50;;;0.47;;
21677;SDS011;11000;50.360;7.582;2023-04-01T13:14:33;0.27;;;0.27;;
21677;SDS011;11000;50.360;7.582;2023-04-01T13:17:20;0.40;;;0.30;;
21677;SDS011;11000;50.360;7.582;2023-04-01T13:22:35;0.50;;;0.50;;
21677;SDS011;11000;50.360;7.582;2023-04-01T13:25:21;0.60;;;0.60;;
21677;SDS011;11000;50.360;7.582;2023-04-01T13:31:00;1.60;;;0.60;;
21677;SDS011;11000;50.360;7.582;2023-04-01T13:33:38;0.83;;;0.80;;
21677;SDS011;11000;50.360;7.582;2023-04-01T13:39:07;2.57;;;2.37;;
21677;SDS011;11000;50.360;7.582;2023-04-01T13:55:55;1.40;;;1.00;;
21677;SDS011;11000;50.360;7.582;2023-04-01T13:58:44;1.67;;;1.10;;
21677;SDS011;11000;50.360;7.582;2023-04-01T14:03:54;1.27;;;1.00;;
21677;SDS011;11000;50.360;7.582;2023-04-01T14:10:06;4.93;;;1.13;;
21677;SDS011;11000;50.360;7.582;2023-04-01T14:12:21;2.40;;;1.23;;
21677;SDS011;11000;50.360;7.582;2023-04-01T14:15:11;0.90;;;0.90;;
21677;SDS011;11000;50.360;7.582;2023-04-01T14:20:45;0.80;;;0.50;;
21677;SDS011;11000;50.360;7.582;2023-04-01T14:28:16;3.17;;;2.97;;
21677;SDS011;11000;50.360;7.582;2023-04-01T14:36:59;1.90;;;0.30;;
21677;SDS011;11000;50.360;7.582;2023-04-01T14:42:59;1.13;;;0.50;;
21677;SDS011;11000;50.360;7.582;2023-04-01T14:48:49;0.93;;;0.20;;
21677;SDS011;11000;50.360;7.582;2023-04-01T14:51:37;0.50;;;0.30;;
21677;SDS011;11000;50.360;7.582;2023-04-01T14:56:35;0.20;;;0.20;;
21677;SDS011;11000;50.360;7.582;2023-04-01T14:59:08;0.30;;;0.20;;
21677;SDS011;11000;50.360;7.582;2023-04-01T15:04:09;0.40;;;0.40;;
21677;SDS011;11000;50.360;7.582;2023-04-01T15:09:42;0.20;;;0.20;;
21677;SDS011;11000;50.360;7.582;2023-04-01T15:12:43;0.20;;;0.20;;
21677;SDS011;11000;50.360;7.582;2023-04-01T15:15:26;0.13;;;0.13;;
21677;SDS011;11000;50.360;7.582;2023-04-01T18:16:56;1.93;;;0.60;;
21677;SDS011;11000;50.360;7.582;2023-04-01T18:22:19;0.80;;;0.80;;
21677;SDS011;11000;50.360;7.582;2023-04-01T18:24:45;0.80;;;0.80;;
21677;SDS011;11000;50.360;7.582;2023-04-01T18:27:29;0.80;;;0.73;;
21677;SDS011;11000;50.360;7.582;2023-04-01T18:32:42;1.87;;;0.90;;
21677;SDS011;11000;50.360;7.582;2023-04-01T18:40:35;1.20;;;0.70;;
21677;SDS011;11000;50.360;7.582;2023-04-01T18:43:09;1.67;;;0.90;;
21677;SDS011;11000;50.360;7.582;2023-04-01T18:45:43;1.40;;;0.90;;
21677;SDS011;11000;50.360;7.582;2023-04-01T18:51:20;1.27;;;1.17;;
21677;SDS011;11000;50.360;7.582;2023-04-01T18:54:02;1.10;;;0.93;;
21677;SDS011;11000;50.360;7.582;2023-04-01T18:56:30;1.30;;;1.00;;
21677;SDS011;11000;50.360;7.582;2023-04-01T19:02:00;1.60;;;0.80;;
21677;SDS011;11000;50.360;7.582;2023-04-01T19:04:39;1.33;;;1.00;;
21677;SDS011;11000;50.360;7.582;2023-04-01T19:07:47;1.53;;;1.00;;
21677;SDS011;11000;50.360;7.582;2023-04-01T19:10:16;1.00;;;0.90;;
21677;SDS011;11000;50.360;7.582;2023-04-01T19:21:01;2.10;;;1.30;;
21677;SDS011;11000;50.360;7.582;2023-04-01T19:23:42;2.77;;;1.30;;
21677;SDS011;11000;50.360;7.582;2023-04-01T19:26:37;1.17;;;1.07;;
21677;SDS011;11000;50.360;7.582;2023-04-01T19:31:47;1.30;;;1.20;;
21677;SDS011;11000;50.360;7.582;2023-04-01T19:34:43;2.60;;;1.40;;
21677;SDS011;11000;50.360;7.582;2023-04-01T19:37:45;1.60;;;1.50;;
21677;SDS011;11000;50.360;7.582;2023-04-01T19:45:49;1.83;;;1.53;;
21677;SDS011;11000;50.360;7.582;2023-04-01T19:51:14;1.37;;;1.27;;
21677;SDS011;11000;50.360;7.582;2023-04-01T19:53:50;1.60;;;1.37;;
21677;SDS011;11000;50.360;7.582;2023-04-01T19:56:24;1.40;;;1.23;;
21677;SDS011;11000;50.360;7.582;2023-04-01T19:58:56;2.33;;;1.50;;
21677;SDS011;11000;50.360;7.582;2023-04-01T20:01:37;1.73;;;1.63;;
21677;SDS011;11000;50.360;7.582;2023-04-01T20:04:14;1.83;;;1.73;;
21677;SDS011;11000;50.360;7.582;2023-04-01T20:06:47;1.73;;;1.57;;
21677;SDS011;11000;50.360;7.582;2023-04-01T20:12:11;1.60;;;1.50;;
21677;SDS011;11000;50.360;7.582;2023-04-01T20:14:40;1.83;;;1.60;;
21677;SDS011;11000;50.360;7.582;2023-04-01T20:17:14;2.53;;;1.60;;
21677;SDS011;11000;50.360;7.582;2023-04-01T20:19:39;2.97;;;1.90;;
21677;SDS011;11000;50.360;7.582;2023-04-01T20:22:17;3.07;;;1.80;;
21677;SDS011;11000;50.360;7.582;2023-04-01T20:24:48;2.00;;;1.80;;
21677;SDS011;11000;50.360;7.582;2023-04-01T20:27:10;2.20;;;1.87;;
21677;SDS011;11000;50.360;7.582;2023-04-01T20:42:16;0.80;;;0.77;;
21677;SDS011;11000;50.360;7.582;2023-04-01T20:44:52;0.63;;;0.50;;
21677;SDS011;11000;50.360;7.582;2023-04-01T20:49:52;0.77;;;0.70;;
21677;SDS011;11000;50.360;7.582;2023-04-01T20:52:25;0.60;;;0.60;;
21677;SDS011;11000;50.360;7.582;2023-04-01T20:58:01;0.50;;;0.40;;
21677;SDS011;11000;50.360;7.582;2023-04-01T21:06:07;0.60;;;0.53;;
21677;SDS011;11000;50.360;7.582;2023-04-01T21:17:05;0.50;;;0.50;;
21677;SDS011;11000;50.360;7.582;2023-04-01T21:22:21;0.50;;;0.50;;
21677;SDS011;11000;50.360;7.582;2023-04-01T21:25:22;0.40;;;0.40;;
21677;SDS011;11000;50.360;7.582;2023-04-01T21:30:46;1.27;;;0.77;;
21677;SDS011;11000;50.360;7.582;2023-04-01T21:42:02;2.13;;;0.63;;
21677;SDS011;11000;50.360;7.582;2023-04-01T21:50:47;0.60;;;0.60;;
21677;SDS011;11000;50.360;7.582;2023-04-01T21:56:28;1.00;;;0.80;;
21677;SDS011;11000;50.360;7.582;2023-04-01T22:04:13;0.70;;;0.70;;
21677;SDS011;11000;50.360;7.582;2023-04-01T22:07:38;2.00;;;0.70;;
21677;SDS011;11000;50.360;7.582;2023-04-01T22:09:56;1.07;;;0.60;;
21677;SDS011;11000;50.360;7.582;2023-04-01T22:12:30;2.10;;;0.50;;
21677;SDS011;11000;50.360;7.582;2023-04-01T22:17:28;1.53;;;0.50;;
21677;SDS011;11000;50.360;7.582;2023-04-01T22:25:20;0.47;;;0.47;;
21677;SDS011;11000;50.360;7.582;2023-04-01T22:27:52;0.43;;;0.40;;
21677;SDS011;11000;50.360;7.582;2023-04-01T22:30:22;0.67;;;0.53;;
21677;SDS011;11000;50.360;7.582;2023-04-01T22:32:47;0.60;;;0.60;;
21677;SDS011;11000;50.360;7.582;2023-04-01T22:38:11;0.50;;;0.50;;
21677;SDS011;11000;50.360;7.582;2023-04-01T22:43:38;0.70;;;0.70;;
21677;SDS011;11000;50.360;7.582;2023-04-01T22:46:22;0.80;;;0.80;;
21677;SDS011;11000;50.360;7.582;2023-04-01T22:49:20;0.80;;;0.70;;
21677;SDS011;11000;50.360;7.582;2023-04-01T23:00:17;0.60;;;0.60;;
21677;SDS011;11000;50.360;7.582;2023-04-01T23:02:59;0.70;;;0.70;;
21677;SDS011;11000;50.360;7.582;2023-04-01T23:05:20;1.20;;;0.67;;
21677;SDS011;11000;50.360;7.582;2023-04-01T23:10:42;0.57;;;0.57;;
21677;SDS011;11000;50.360;7.582;2023-04-01T23:13:19;0.80;;;0.70;;
21677;SDS011;11000;50.360;7.582;2023-04-01T23:15:44;0.93;;;0.80;;
21677;SDS011;11000;50.360;7.582;2023-04-01T23:18:09;0.53;;;0.53;;
21677;SDS011;11000;50.360;7.582;2023-04-01T23:23:30;0.70;;;0.60;;
21677;SDS011;11000;50.360;7.582;2023-04-01T23:26:02;0.50;;;0.50;;
21677;SDS011;11000;50.360;7.582;2023-04-01T23:28:54;0.83;;;0.73;;
21677;SDS011;11000;50.360;7.582;2023-04-01T23:33:50;0.60;;;0.60;;
21677;SDS011;11000;50.360;7.582;2023-04-01T23:36:14;0.73;;;0.73;;
21677;SDS011;11000;50.360;7.582;2023-04-01T23:38:36;0.50;;;0.50;;
21677;SDS011;11000;50.360;7.582;2023-04-01T23:40:59;0.57;;;0.57;;
21677;SDS011;11000;50.360;7.582;2023-04-01T23:43:28;0.73;;;0.73;;
21677;SDS011;11000;50.360;7.582;2023-04-01T23:45:52;0.70;;;0.70;;
21677;SDS011;11000;50.360;7.582;2023-04-01T23:48:15;0.90;;;0.63;;
21677;SDS011;11000;50.360;7.582;2023-04-01T23:50:39;3.13;;;0.70;;
21677;SDS011;11000;50.360;7.582;2023-04-01T23:53:16;0.80;;;0.80;;
21677;SDS011;11000;50.360;7.582;2023-04-01T23:55:40;0.80;;;0.70;;
